St. Catharines Glass Ave

*Note: All times are displayed in the local standard time of the station location.
**Rain - Equipment is designed to accurately record liquid precipitation; under conditions when precipitation is not in liquid form, the data displayed may not properly reflect rainfall values.

Date Max Temp
(°C)
Min Temp
(°C)
Avg Temp
(°C)
Rain (mm) Avg RH (%)
Sat, Dec 08, 2018 0.6 -5.8 -2.7 0.0 72.5
Fri, Dec 07, 2018 -1.9 -4.2 -3.6 0.0 68.5
Thu, Dec 06, 2018 2.6 -1.8 0.2 0.6 77.9
Wed, Dec 05, 2018 1.5 -7.7 -2.7 0.0 78.3
Tue, Dec 04, 2018 1.1 -6.1 -2.0 0.0 75.8
Mon, Dec 03, 2018 8.0 0.0 3.2 0.6 78.4
Sun, Dec 02, 2018 15.0 1.9 7.8 4.0 88.0
DateTime Avg Temp (°C) Rain (mm) RH (%)
Sun, Dec 09, 2018 21:00 -2.3 0.0 75.1
Sun, Dec 09, 2018 20:00 -3.2 0.0 76.9
Sun, Dec 09, 2018 19:00 -2.6 0.0 74.3
Sun, Dec 09, 2018 18:00 -1.6 0.0 71.3
Sun, Dec 09, 2018 17:00 -0.5 0.0 66.2
Sun, Dec 09, 2018 16:00 0.8 0.0 64.9
Sun, Dec 09, 2018 15:00 1.1 0.0 64.4
Sun, Dec 09, 2018 14:00 1.2 0.0 64.4
Sun, Dec 09, 2018 13:00 1.0 0.0 66.6
Sun, Dec 09, 2018 12:00 0.7 0.0 67.1
Sun, Dec 09, 2018 11:00 -0.1 0.0 65.8
Sun, Dec 09, 2018 10:00 -2.0 0.0 70.0
Sun, Dec 09, 2018 09:00 -4.4 0.0 74.2
Sun, Dec 09, 2018 08:00 -7.3 0.0 84.9
Sun, Dec 09, 2018 07:00 -7.8 0.0 90.4
Sun, Dec 09, 2018 06:00 -7.3 0.0 89.0
Sun, Dec 09, 2018 05:00 -6.1 0.0 84.2
Sun, Dec 09, 2018 04:00 -4.9 0.0 78.3
Sun, Dec 09, 2018 03:00 -3.6 0.0 71.0
Sun, Dec 09, 2018 02:00 -2.9 0.0 71.2
Sun, Dec 09, 2018 01:00 -2.8 0.0 72.9
Sun, Dec 09, 2018 00:00 -2.6 0.0 74.1
Sat, Dec 08, 2018 23:00 -2.5 0.0 73.9
Sat, Dec 08, 2018 22:00 -2.6 0.0 73.4
Sat, Dec 08, 2018 21:00 -2.5 0.0 74.0
Sat, Dec 08, 2018 20:00 -2.5 0.0 74.1
Sat, Dec 08, 2018 19:00 -2.4 0.0 73.6
Sat, Dec 08, 2018 18:00 -2.4 0.0 72.9
Sat, Dec 08, 2018 17:00 -2.1 0.0 71.2
Sat, Dec 08, 2018 16:00 -1.1 0.0 64.8
Sat, Dec 08, 2018 15:00 0.2 0.0 53.6
Sat, Dec 08, 2018 14:00 0.5 0.0 52.3
Sat, Dec 08, 2018 13:00 0.1 0.0 54.4
Sat, Dec 08, 2018 12:00 -0.9 0.0 62.4
Sat, Dec 08, 2018 11:00 -1.9 0.0 65.2
Sat, Dec 08, 2018 10:00 -3.6 0.0 68.5
Sat, Dec 08, 2018 09:00 -5.2 0.0 72.3
Sat, Dec 08, 2018 08:00 -5.4 0.0 72.8
Sat, Dec 08, 2018 07:00 -4.1 0.0 70.4
Sat, Dec 08, 2018 06:00 -3.3 0.0 71.6
Sat, Dec 08, 2018 05:00 -3.8 0.0 85.6
Sat, Dec 08, 2018 04:00 -4.4 0.0 91.9
Sat, Dec 08, 2018 03:00 -4.4 0.0 91.9
Sat, Dec 08, 2018 02:00 -4.5 0.0 92.4
Sat, Dec 08, 2018 01:00 -4.2 0.0 84.3
Sat, Dec 08, 2018 00:00 -3.7 0.0 73.5
Fri, Dec 07, 2018 23:00 -3.7 0.0 71.9
Fri, Dec 07, 2018 22:00 -3.9 0.0 74.4


asterix Register now to access more data! asterix